sensor_id;sensor_type;location;lat;lon;timestamp;temperature;humidity
35523;DHT22;61478;50.820;4.330;2023-08-20T00:01:12;21.30;99.90
35523;DHT22;61478;50.820;4.330;2023-08-20T00:03:41;21.40;99.90
35523;DHT22;61478;50.820;4.330;2023-08-20T00:06:07;21.50;99.90
35523;DHT22;61478;50.820;4.330;2023-08-20T00:08:33;21.40;99.90
35523;DHT22;61478;50.820;4.330;2023-08-20T00:11:02;21.40;99.90
35523;DHT22;61478;50.820;4.330;2023-08-20T00:13:28;21.40;99.90
35523;DHT22;61478;50.820;4.330;2023-08-20T00:15:54;21.50;99.90
35523;DHT22;61478;50.820;4.330;2023-08-20T00:18:20;21.40;99.90
35523;DHT22;61478;50.820;4.330;2023-08-20T00:20:49;21.30;99.90
35523;DHT22;61478;50.820;4.330;2023-08-20T00:23:16;21.30;99.90
35523;DHT22;61478;50.820;4.330;2023-08-20T00:25:43;21.30;99.90
35523;DHT22;61478;50.820;4.330;2023-08-20T00:28:09;21.30;99.90
35523;DHT22;61478;50.820;4.330;2023-08-20T00:30:35;21.30;99.90
35523;DHT22;61478;50.820;4.330;2023-08-20T00:33:04;21.30;99.90
35523;DHT22;61478;50.820;4.330;2023-08-20T00:35:30;21.20;99.90
35523;DHT22;61478;50.820;4.330;2023-08-20T00:38:02;20.90;99.90
35523;DHT22;61478;50.820;4.330;2023-08-20T00:40:28;20.70;99.90
35523;DHT22;61478;50.820;4.330;2023-08-20T00:42:54;20.60;99.90
35523;DHT22;61478;50.820;4.330;2023-08-20T00:45:20;20.50;99.90
35523;DHT22;61478;50.820;4.330;2023-08-20T00:47:46;20.60;99.90
35523;DHT22;61478;50.820;4.330;2023-08-20T00:50:12;20.60;99.90
35523;DHT22;61478;50.820;4.330;2023-08-20T00:52:38;20.70;99.90
35523;DHT22;61478;50.820;4.330;2023-08-20T00:55:11;20.70;99.90
35523;DHT22;61478;50.820;4.330;2023-08-20T00:57:39;20.80;99.90
35523;DHT22;61478;50.820;4.330;2023-08-20T01:00:07;20.90;99.90
35523;DHT22;61478;50.820;4.330;2023-08-20T01:02:35;20.90;99.90
35523;DHT22;61478;50.820;4.330;2023-08-20T01:05:02;20.90;99.90
35523;DHT22;61478;50.820;4.330;2023-08-20T01:10:38;21.00;99.90
35523;DHT22;61478;50.820;4.330;2023-08-20T01:13:05;21.10;99.90
35523;DHT22;61478;50.820;4.330;2023-08-20T01:15:33;21.20;99.90
35523;DHT22;61478;50.820;4.330;2023-08-20T01:17:58;21.10;99.90
35523;DHT22;61478;50.820;4.330;2023-08-20T01:20:29;21.20;99.90
35523;DHT22;61478;50.820;4.330;2023-08-20T01:28:32;21.00;99.90
35523;DHT22;61478;50.820;4.330;2023-08-20T01:31:00;20.90;99.90
35523;DHT22;61478;50.820;4.330;2023-08-20T01:33:26;20.80;99.90
35523;DHT22;61478;50.820;4.330;2023-08-20T01:35:54;20.80;99.90
35523;DHT22;61478;50.820;4.330;2023-08-20T01:38:21;20.70;99.90
35523;DHT22;61478;50.820;4.330;2023-08-20T01:40:47;21.00;99.90
35523;DHT22;61478;50.820;4.330;2023-08-20T01:43:14;21.00;99.90
35523;DHT22;61478;50.820;4.330;2023-08-20T01:45:41;21.00;99.90
35523;DHT22;61478;50.820;4.330;2023-08-20T01:48:07;21.00;99.90
35523;DHT22;61478;50.820;4.330;2023-08-20T01:50:34;21.00;99.90
35523;DHT22;61478;50.820;4.330;2023-08-20T01:53:00;20.90;99.90
35523;DHT22;61478;50.820;4.330;2023-08-20T01:55:26;20.80;99.90
35523;DHT22;61478;50.820;4.330;2023-08-20T01:57:55;20.60;99.90
35523;DHT22;61478;50.820;4.330;2023-08-20T02:00:24;20.50;99.90
35523;DHT22;61478;50.820;4.330;2023-08-20T02:02:50;20.50;99.90
35523;DHT22;61478;50.820;4.330;2023-08-20T02:05:16;20.60;99.90
35523;DHT22;61478;50.820;4.330;2023-08-20T02:07:41;20.70;99.90
35523;DHT22;61478;50.820;4.330;2023-08-20T02:10:08;20.70;99.90
35523;DHT22;61478;50.820;4.330;2023-08-20T02:12:34;20.60;99.90
35523;DHT22;61478;50.820;4.330;2023-08-20T02:15:00;20.50;99.90
35523;DHT22;61478;50.820;4.330;2023-08-20T02:17:26;20.30;99.90
35523;DHT22;61478;50.820;4.330;2023-08-20T02:19:52;20.20;99.90
35523;DHT22;61478;50.820;4.330;2023-08-20T02:22:18;20.10;99.90
35523;DHT22;61478;50.820;4.330;2023-08-20T02:24:46;20.00;99.90
35523;DHT22;61478;50.820;4.330;2023-08-20T02:27:12;20.00;99.90
35523;DHT22;61478;50.820;4.330;2023-08-20T02:29:38;20.00;99.90
35523;DHT22;61478;50.820;4.330;2023-08-20T02:32:07;20.10;99.90
35523;DHT22;61478;50.820;4.330;2023-08-20T02:34:33;20.00;99.90
35523;DHT22;61478;50.820;4.330;2023-08-20T02:37:01;19.80;99.90
35523;DHT22;61478;50.820;4.330;2023-08-20T02:39:27;19.70;99.90
35523;DHT22;61478;50.820;4.330;2023-08-20T02:41:53;19.50;99.90
35523;DHT22;61478;50.820;4.330;2023-08-20T02:44:21;19.40;99.90
35523;DHT22;61478;50.820;4.330;2023-08-20T02:46:47;19.30;99.90
35523;DHT22;61478;50.820;4.330;2023-08-20T02:49:13;19.20;99.90
35523;DHT22;61478;50.820;4.330;2023-08-20T02:51:43;19.20;99.90
35523;DHT22;61478;50.820;4.330;2023-08-20T02:54:09;19.20;99.90
35523;DHT22;61478;50.820;4.330;2023-08-20T02:56:35;19.10;99.90
35523;DHT22;61478;50.820;4.330;2023-08-20T02:59:03;19.00;99.90
35523;DHT22;61478;50.820;4.330;2023-08-20T03:01:29;19.00;99.90
35523;DHT22;61478;50.820;4.330;2023-08-20T03:03:56;19.10;99.90
35523;DHT22;61478;50.820;4.330;2023-08-20T03:06:22;19.20;99.90
35523;DHT22;61478;50.820;4.330;2023-08-20T03:08:48;19.10;99.90
35523;DHT22;61478;50.820;4.330;2023-08-20T03:11:14;19.10;99.90
35523;DHT22;61478;50.820;4.330;2023-08-20T03:13:40;19.10;99.90
35523;DHT22;61478;50.820;4.330;2023-08-20T03:16:05;19.10;99.90
35523;DHT22;61478;50.820;4.330;2023-08-20T03:18:31;19.10;99.90
35523;DHT22;61478;50.820;4.330;2023-08-20T03:20:57;19.30;99.90
35523;DHT22;61478;50.820;4.330;2023-08-20T03:23:27;19.30;99.90
35523;DHT22;61478;50.820;4.330;2023-08-20T03:25:53;19.20;99.90
35523;DHT22;61478;50.820;4.330;2023-08-20T03:28:21;19.30;99.90
35523;DHT22;61478;50.820;4.330;2023-08-20T03:30:47;19.20;99.90
35523;DHT22;61478;50.820;4.330;2023-08-20T03:33:12;19.10;99.90
35523;DHT22;61478;50.820;4.330;2023-08-20T03:35:39;19.00;99.90
35523;DHT22;61478;50.820;4.330;2023-08-20T03:38:05;19.00;99.90
35523;DHT22;61478;50.820;4.330;2023-08-20T03:40:31;19.10;99.90
35523;DHT22;61478;50.820;4.330;2023-08-20T03:42:56;19.20;99.90
35523;DHT22;61478;50.820;4.330;2023-08-20T03:45:22;19.20;99.90
35523;DHT22;61478;50.820;4.330;2023-08-20T03:47:51;19.20;99.90
35523;DHT22;61478;50.820;4.330;2023-08-20T03:50:17;19.20;99.90
35523;DHT22;61478;50.820;4.330;2023-08-20T03:52:43;19.10;99.90
35523;DHT22;61478;50.820;4.330;2023-08-20T03:55:12;19.10;99.90
35523;DHT22;61478;50.820;4.330;2023-08-20T03:57:38;19.10;99.90
35523;DHT22;61478;50.820;4.330;2023-08-20T04:00:07;19.20;99.90
35523;DHT22;61478;50.820;4.330;2023-08-20T04:02:39;19.40;99.90
35523;DHT22;61478;50.820;4.330;2023-08-20T04:05:05;19.40;99.90
35523;DHT22;61478;50.820;4.330;2023-08-20T04:07:31;19.60;99.90
35523;DHT22;61478;50.820;4.330;2023-08-20T04:09:57;19.90;99.90
35523;DHT22;61478;50.820;4.330;2023-08-20T04:12:22;20.00;99.90
35523;DHT22;61478;50.820;4.330;2023-08-20T04:14:54;19.80;99.90
35523;DHT22;61478;50.820;4.330;2023-08-20T04:17:20;20.00;99.90
35523;DHT22;61478;50.820;4.330;2023-08-20T04:19:48;20.10;99.90
35523;DHT22;61478;50.820;4.330;2023-08-20T04:22:14;20.10;99.90
35523;DHT22;61478;50.820;4.330;2023-08-20T04:24:40;20.00;99.90
35523;DHT22;61478;50.820;4.330;2023-08-20T04:27:06;19.80;99.90
35523;DHT22;61478;50.820;4.330;2023-08-20T04:29:32;19.70;99.90
35523;DHT22;61478;50.820;4.330;2023-08-20T04:31:58;19.60;99.90
35523;DHT22;61478;50.820;4.330;2023-08-20T04:34:24;19.50;99.90
35523;DHT22;61478;50.820;4.330;2023-08-20T04:36:51;19.40;99.90
35523;DHT22;61478;50.820;4.330;2023-08-20T04:39:18;19.50;99.90
35523;DHT22;61478;50.820;4.330;2023-08-20T04:41:44;19.40;99.90
35523;DHT22;61478;50.820;4.330;2023-08-20T04:44:10;19.50;99.90
35523;DHT22;61478;50.820;4.330;2023-08-20T04:46:36;19.80;99.90
35523;DHT22;61478;50.820;4.330;2023-08-20T04:49:02;20.00;99.90
35523;DHT22;61478;50.820;4.330;2023-08-20T04:51:28;19.80;99.90
35523;DHT22;61478;50.820;4.330;2023-08-20T04:53:54;19.70;99.90
35523;DHT22;61478;50.820;4.330;2023-08-20T04:56:20;19.70;99.90
35523;DHT22;61478;50.820;4.330;2023-08-20T04:58:45;19.70;99.90
35523;DHT22;61478;50.820;4.330;2023-08-20T05:01:11;19.80;99.90
35523;DHT22;61478;50.820;4.330;2023-08-20T05:03:37;19.80;99.90
35523;DHT22;61478;50.820;4.330;2023-08-20T05:06:03;19.50;99.90
35523;DHT22;61478;50.820;4.330;2023-08-20T05:08:30;19.30;99.90
35523;DHT22;61478;50.820;4.330;2023-08-20T05:10:56;19.30;99.90
35523;DHT22;61478;50.820;4.330;2023-08-20T05:13:22;19.30;99.90
35523;DHT22;61478;50.820;4.330;2023-08-20T05:15:49;19.40;99.90
35523;DHT22;61478;50.820;4.330;2023-08-20T05:18:15;19.40;99.90
35523;DHT22;61478;50.820;4.330;2023-08-20T05:20:43;19.40;99.90
35523;DHT22;61478;50.820;4.330;2023-08-20T05:23:09;19.50;99.90
35523;DHT22;61478;50.820;4.330;2023-08-20T05:25:35;19.50;99.90
35523;DHT22;61478;50.820;4.330;2023-08-20T05:28:01;19.50;99.90
35523;DHT22;61478;50.820;4.330;2023-08-20T05:30:27;19.40;99.90
35523;DHT22;61478;50.820;4.330;2023-08-20T05:32:52;19.40;99.90
35523;DHT22;61478;50.820;4.330;2023-08-20T05:35:18;19.50;99.90
35523;DHT22;61478;50.820;4.330;2023-08-20T05:37:44;19.50;99.90
35523;DHT22;61478;50.820;4.330;2023-08-20T05:40:12;19.60;99.90
35523;DHT22;61478;50.820;4.330;2023-08-20T05:42:38;19.70;99.90
35523;DHT22;61478;50.820;4.330;2023-08-20T05:45:07;19.90;99.90
35523;DHT22;61478;50.820;4.330;2023-08-20T05:47:36;20.00;99.90
35523;DHT22;61478;50.820;4.330;2023-08-20T05:50:02;20.00;99.90
35523;DHT22;61478;50.820;4.330;2023-08-20T05:52:28;19.80;99.90
35523;DHT22;61478;50.820;4.330;2023-08-20T05:54:54;19.80;99.90
35523;DHT22;61478;50.820;4.330;2023-08-20T05:57:22;19.90;99.90
35523;DHT22;61478;50.820;4.330;2023-08-20T05:59:49;19.90;99.90
35523;DHT22;61478;50.820;4.330;2023-08-20T06:02:18;19.90;99.90
35523;DHT22;61478;50.820;4.330;2023-08-20T06:04:44;19.70;99.90
35523;DHT22;61478;50.820;4.330;2023-08-20T06:07:13;19.60;99.90
35523;DHT22;61478;50.820;4.330;2023-08-20T06:09:39;19.70;99.90
35523;DHT22;61478;50.820;4.330;2023-08-20T06:12:06;19.60;99.90
35523;DHT22;61478;50.820;4.330;2023-08-20T06:14:32;19.50;99.90
35523;DHT22;61478;50.820;4.330;2023-08-20T06:16:58;19.70;99.90
35523;DHT22;61478;50.820;4.330;2023-08-20T06:19:27;19.70;99.90
35523;DHT22;61478;50.820;4.330;2023-08-20T06:22:00;19.70;99.90
35523;DHT22;61478;50.820;4.330;2023-08-20T06:24:26;19.90;99.90
35523;DHT22;61478;50.820;4.330;2023-08-20T06:26:52;20.00;99.90
35523;DHT22;61478;50.820;4.330;2023-08-20T06:29:20;20.00;99.90
35523;DHT22;61478;50.820;4.330;2023-08-20T06:31:48;20.20;99.90
35523;DHT22;61478;50.820;4.330;2023-08-20T06:34:14;20.20;99.90
35523;DHT22;61478;50.820;4.330;2023-08-20T06:36:40;20.20;99.90
35523;DHT22;61478;50.820;4.330;2023-08-20T06:39:06;20.20;99.90
35523;DHT22;61478;50.820;4.330;2023-08-20T06:41:33;20.20;99.90
35523;DHT22;61478;50.820;4.330;2023-08-20T06:43:59;20.10;99.90
35523;DHT22;61478;50.820;4.330;2023-08-20T06:46:25;20.00;99.90
35523;DHT22;61478;50.820;4.330;2023-08-20T06:48:53;20.00;99.90
35523;DHT22;61478;50.820;4.330;2023-08-20T06:51:22;20.00;99.90
35523;DHT22;61478;50.820;4.330;2023-08-20T06:53:49;20.10;99.90
35523;DHT22;61478;50.820;4.330;2023-08-20T06:56:15;20.30;99.90
35523;DHT22;61478;50.820;4.330;2023-08-20T06:58:42;20.40;99.90
35523;DHT22;61478;50.820;4.330;2023-08-20T07:01:08;20.50;99.90
35523;DHT22;61478;50.820;4.330;2023-08-20T07:03:39;20.50;99.90
35523;DHT22;61478;50.820;4.330;2023-08-20T07:06:08;20.60;99.90
35523;DHT22;61478;50.820;4.330;2023-08-20T07:08:37;20.70;99.90
35523;DHT22;61478;50.820;4.330;2023-08-20T07:11:07;20.70;99.90
35523;DHT22;61478;50.820;4.330;2023-08-20T07:13:33;20.70;99.90
35523;DHT22;61478;50.820;4.330;2023-08-20T07:16:00;20.50;99.90
35523;DHT22;61478;50.820;4.330;2023-08-20T07:18:26;20.50;99.90
35523;DHT22;61478;50.820;4.330;2023-08-20T07:20:55;20.40;99.90
35523;DHT22;61478;50.820;4.330;2023-08-20T07:23:22;20.40;99.90
35523;DHT22;61478;50.820;4.330;2023-08-20T07:25:51;20.60;99.90
35523;DHT22;61478;50.820;4.330;2023-08-20T07:28:19;20.70;99.90
35523;DHT22;61478;50.820;4.330;2023-08-20T07:31:05;20.70;99.90
35523;DHT22;61478;50.820;4.330;2023-08-20T07:33:31;20.60;99.90
35523;DHT22;61478;50.820;4.330;2023-08-20T07:35:57;20.60;99.90
35523;DHT22;61478;50.820;4.330;2023-08-20T07:38:26;20.80;99.90
35523;DHT22;61478;50.820;4.330;2023-08-20T07:40:57;20.80;99.90
35523;DHT22;61478;50.820;4.330;2023-08-20T07:43:26;20.80;99.90
35523;DHT22;61478;50.820;4.330;2023-08-20T07:45:52;21.00;99.90
35523;DHT22;61478;50.820;4.330;2023-08-20T07:48:18;21.10;99.90
35523;DHT22;61478;50.820;4.330;2023-08-20T07:50:45;20.90;99.90
35523;DHT22;61478;50.820;4.330;2023-08-20T07:53:11;20.90;99.90
35523;DHT22;61478;50.820;4.330;2023-08-20T07:55:45;20.90;99.90
35523;DHT22;61478;50.820;4.330;2023-08-20T07:58:14;21.00;99.90
35523;DHT22;61478;50.820;4.330;2023-08-20T08:00:40;21.00;99.90
35523;DHT22;61478;50.820;4.330;2023-08-20T08:03:08;21.00;99.90
35523;DHT22;61478;50.820;4.330;2023-08-20T08:05:37;21.00;99.90
35523;DHT22;61478;50.820;4.330;2023-08-20T08:08:06;21.10;99.90
35523;DHT22;61478;50.820;4.330;2023-08-20T08:10:36;21.10;99.90
35523;DHT22;61478;50.820;4.330;2023-08-20T08:13:01;21.20;99.90
35523;DHT22;61478;50.820;4.330;2023-08-20T08:15:30;21.30;99.90
35523;DHT22;61478;50.820;4.330;2023-08-20T08:17:56;21.40;99.90
35523;DHT22;61478;50.820;4.330;2023-08-20T08:20:22;21.40;99.90
35523;DHT22;61478;50.820;4.330;2023-08-20T08:22:48;21.50;99.90
35523;DHT22;61478;50.820;4.330;2023-08-20T08:25:14;21.60;99.90
35523;DHT22;61478;50.820;4.330;2023-08-20T08:27:40;21.70;99.90
35523;DHT22;61478;50.820;4.330;2023-08-20T08:30:07;21.80;99.90
35523;DHT22;61478;50.820;4.330;2023-08-20T08:32:34;21.90;99.90
35523;DHT22;61478;50.820;4.330;2023-08-20T08:34:59;21.80;99.90
35523;DHT22;61478;50.820;4.330;2023-08-20T08:37:25;21.90;99.90
35523;DHT22;61478;50.820;4.330;2023-08-20T08:39:52;22.00;99.90
35523;DHT22;61478;50.820;4.330;2023-08-20T08:42:19;22.00;99.90
35523;DHT22;61478;50.820;4.330;2023-08-20T08:44:49;22.10;99.90
35523;DHT22;61478;50.820;4.330;2023-08-20T08:47:16;22.30;99.90
35523;DHT22;61478;50.820;4.330;2023-08-20T08:49:43;22.50;99.90
35523;DHT22;61478;50.820;4.330;2023-08-20T08:52:12;22.60;99.90
35523;DHT22;61478;50.820;4.330;2023-08-20T08:54:39;22.70;99.90
35523;DHT22;61478;50.820;4.330;2023-08-20T08:57:05;22.80;99.90
35523;DHT22;61478;50.820;4.330;2023-08-20T08:59:34;22.90;99.90
35523;DHT22;61478;50.820;4.330;2023-08-20T09:02:00;23.00;99.90
35523;DHT22;61478;50.820;4.330;2023-08-20T09:04:26;23.10;99.90
35523;DHT22;61478;50.820;4.330;2023-08-20T09:06:54;23.20;99.90
35523;DHT22;61478;50.820;4.330;2023-08-20T09:09:23;23.40;99.90
35523;DHT22;61478;50.820;4.330;2023-08-20T09:11:49;23.50;99.90
35523;DHT22;61478;50.820;4.330;2023-08-20T09:17:00;23.60;99.90
35523;DHT22;61478;50.820;4.330;2023-08-20T09:19:30;23.80;99.90
35523;DHT22;61478;50.820;4.330;2023-08-20T09:22:00;24.00;99.90
35523;DHT22;61478;50.820;4.330;2023-08-20T09:24:39;24.00;99.90
35523;DHT22;61478;50.820;4.330;2023-08-20T09:27:08;24.20;99.90
35523;DHT22;61478;50.820;4.330;2023-08-20T09:29:55;25.20;99.90
35523;DHT22;61478;50.820;4.330;2023-08-20T09:32:23;25.90;99.90
35523;DHT22;61478;50.820;4.330;2023-08-20T09:34:51;26.50;99.90
35523;DHT22;61478;50.820;4.330;2023-08-20T09:37:19;27.40;99.90
35523;DHT22;61478;50.820;4.330;2023-08-20T09:39:48;28.20;99.90
35523;DHT22;61478;50.820;4.330;2023-08-20T09:42:15;29.00;99.90
35523;DHT22;61478;50.820;4.330;2023-08-20T09:44:45;29.50;99.90
35523;DHT22;61478;50.820;4.330;2023-08-20T09:47:13;30.00;99.90
35523;DHT22;61478;50.820;4.330;2023-08-20T09:49:44;30.40;99.90
35523;DHT22;61478;50.820;4.330;2023-08-20T09:52:19;31.10;99.10
35523;DHT22;61478;50.820;4.330;2023-08-20T09:55:13;31.30;99.90
35523;DHT22;61478;50.820;4.330;2023-08-20T09:57:42;31.60;99.90
35523;DHT22;61478;50.820;4.330;2023-08-20T10:00:10;31.80;99.90
35523;DHT22;61478;50.820;4.330;2023-08-20T10:02:37;32.10;99.10
35523;DHT22;61478;50.820;4.330;2023-08-20T10:05:07;32.40;97.00
35523;DHT22;61478;50.820;4.330;2023-08-20T10:07:33;32.40;97.30
35523;DHT22;61478;50.820;4.330;2023-08-20T10:10:02;32.40;93.90
35523;DHT22;61478;50.820;4.330;2023-08-20T10:12:29;32.60;93.20
35523;DHT22;61478;50.820;4.330;2023-08-20T10:14:57;32.90;93.10
35523;DHT22;61478;50.820;4.330;2023-08-20T10:17:23;33.00;94.30
35523;DHT22;61478;50.820;4.330;2023-08-20T10:19:52;33.00;94.90
35523;DHT22;61478;50.820;4.330;2023-08-20T10:22:19;33.20;91.60
35523;DHT22;61478;50.820;4.330;2023-08-20T10:24:51;33.50;91.90
35523;DHT22;61478;50.820;4.330;2023-08-20T10:27:25;33.40;88.60
35523;DHT22;61478;50.820;4.330;2023-08-20T10:29:55;33.10;91.80
35523;DHT22;61478;50.820;4.330;2023-08-20T10:32:50;32.70;90.00
35523;DHT22;61478;50.820;4.330;2023-08-20T10:35:27;32.50;93.70
35523;DHT22;61478;50.820;4.330;2023-08-20T10:38:11;32.70;93.90
35523;DHT22;61478;50.820;4.330;2023-08-20T10:43:30;33.20;89.20
35523;DHT22;61478;50.820;4.330;2023-08-20T10:46:22;33.50;90.80
35523;DHT22;61478;50.820;4.330;2023-08-20T10:48:53;33.50;89.40
35523;DHT22;61478;50.820;4.330;2023-08-20T10:51:26;33.60;90.40
35523;DHT22;61478;50.820;4.330;2023-08-20T10:54:02;33.60;90.20
35523;DHT22;61478;50.820;4.330;2023-08-20T11:01:53;33.20;86.00
35523;DHT22;61478;50.820;4.330;2023-08-20T11:04:22;32.70;87.70
35523;DHT22;61478;50.820;4.330;2023-08-20T11:06:52;32.80;86.30
35523;DHT22;61478;50.820;4.330;2023-08-20T11:09:19;32.80;85.60
35523;DHT22;61478;50.820;4.330;2023-08-20T11:11:45;31.90;87.60
35523;DHT22;61478;50.820;4.330;2023-08-20T11:14:17;31.80;88.30
35523;DHT22;61478;50.820;4.330;2023-08-20T11:16:44;32.10;88.60
35523;DHT22;61478;50.820;4.330;2023-08-20T11:19:13;32.60;90.40
35523;DHT22;61478;50.820;4.330;2023-08-20T11:21:41;32.80;85.60
35523;DHT22;61478;50.820;4.330;2023-08-20T11:24:11;33.00;91.10
35523;DHT22;61478;50.820;4.330;2023-08-20T11:26:41;33.40;91.10
35523;DHT22;61478;50.820;4.330;2023-08-20T11:29:13;33.00;84.80
35523;DHT22;61478;50.820;4.330;2023-08-20T11:31:40;33.00;85.70
35523;DHT22;61478;50.820;4.330;2023-08-20T11:34:09;33.20;91.30
35523;DHT22;61478;50.820;4.330;2023-08-20T11:36:38;33.00;93.30
35523;DHT22;61478;50.820;4.330;2023-08-20T11:39:05;33.10;85.80
35523;DHT22;61478;50.820;4.330;2023-08-20T11:41:36;33.10;86.00
35523;DHT22;61478;50.820;4.330;2023-08-20T11:44:03;33.40;85.70
35523;DHT22;61478;50.820;4.330;2023-08-20T11:46:29;33.20;85.70
35523;DHT22;61478;50.820;4.330;2023-08-20T11:49:03;32.80;91.10
35523;DHT22;61478;50.820;4.330;2023-08-20T11:51:34;32.90;91.90
35523;DHT22;61478;50.820;4.330;2023-08-20T11:54:00;32.20;89.80
35523;DHT22;61478;50.820;4.330;2023-08-20T11:56:27;31.50;90.50
35523;DHT22;61478;50.820;4.330;2023-08-20T11:58:59;31.20;90.70
35523;DHT22;61478;50.820;4.330;2023-08-20T12:01:25;31.50;93.10
35523;DHT22;61478;50.820;4.330;2023-08-20T12:03:51;31.80;93.80
35523;DHT22;61478;50.820;4.330;2023-08-20T12:06:21;31.40;90.50
35523;DHT22;61478;50.820;4.330;2023-08-20T12:08:48;31.20;92.50
35523;DHT22;61478;50.820;4.330;2023-08-20T12:11:14;31.60;92.60
35523;DHT22;61478;50.820;4.330;2023-08-20T12:13:41;31.90;93.70
35523;DHT22;61478;50.820;4.330;2023-08-20T12:16:06;32.30;95.10
35523;DHT22;61478;50.820;4.330;2023-08-20T12:18:33;32.50;92.80
35523;DHT22;61478;50.820;4.330;2023-08-20T12:20:59;32.60;91.90
35523;DHT22;61478;50.820;4.330;2023-08-20T12:23:24;32.30;90.50
35523;DHT22;61478;50.820;4.330;2023-08-20T12:25:51;31.80;90.60
35523;DHT22;61478;50.820;4.330;2023-08-20T12:28:17;31.60;92.50
35523;DHT22;61478;50.820;4.330;2023-08-20T12:30:44;31.40;92.00
35523;DHT22;61478;50.820;4.330;2023-08-20T12:33:11;31.20;92.90
35523;DHT22;61478;50.820;4.330;2023-08-20T12:35:37;30.90;95.10
35523;DHT22;61478;50.820;4.330;2023-08-20T12:38:03;30.60;93.20
35523;DHT22;61478;50.820;4.330;2023-08-20T12:40:30;30.50;96.60
35523;DHT22;61478;50.820;4.330;2023-08-20T12:42:56;30.50;97.90
35523;DHT22;61478;50.820;4.330;2023-08-20T12:45:22;30.60;98.30
35523;DHT22;61478;50.820;4.330;2023-08-20T12:47:48;30.90;95.80
35523;DHT22;61478;50.820;4.330;2023-08-20T12:50:14;31.20;98.40
35523;DHT22;61478;50.820;4.330;2023-08-20T12:52:40;31.60;96.90
35523;DHT22;61478;50.820;4.330;2023-08-20T12:55:06;31.80;96.20
35523;DHT22;61478;50.820;4.330;2023-08-20T12:57:35;31.80;93.30
35523;DHT22;61478;50.820;4.330;2023-08-20T13:00:02;31.70;93.30
35523;DHT22;61478;50.820;4.330;2023-08-20T13:02:35;31.50;93.70
35523;DHT22;61478;50.820;4.330;2023-08-20T13:05:01;31.40;93.50
35523;DHT22;61478;50.820;4.330;2023-08-20T13:07:28;31.40;93.70
35523;DHT22;61478;50.820;4.330;2023-08-20T13:09:54;31.50;93.30
35523;DHT22;61478;50.820;4.330;2023-08-20T13:12:23;31.60;93.30
35523;DHT22;61478;50.820;4.330;2023-08-20T13:14:52;31.40;93.60
35523;DHT22;61478;50.820;4.330;2023-08-20T13:17:18;31.30;92.50
35523;DHT22;61478;50.820;4.330;2023-08-20T13:19:44;31.60;94.00
35523;DHT22;61478;50.820;4.330;2023-08-20T13:22:10;31.70;95.30
35523;DHT22;61478;50.820;4.330;2023-08-20T13:24:36;31.90;94.10
35523;DHT22;61478;50.820;4.330;2023-08-20T13:27:02;31.70;94.20
35523;DHT22;61478;50.820;4.330;2023-08-20T13:29:28;31.50;94.10
35523;DHT22;61478;50.820;4.330;2023-08-20T13:31:54;31.80;93.90
35523;DHT22;61478;50.820;4.330;2023-08-20T13:34:20;31.90;92.90
35523;DHT22;61478;50.820;4.330;2023-08-20T13:36:46;32.00;93.00
35523;DHT22;61478;50.820;4.330;2023-08-20T13:39:12;32.10;94.50
35523;DHT22;61478;50.820;4.330;2023-08-20T13:41:45;32.00;93.20
35523;DHT22;61478;50.820;4.330;2023-08-20T13:44:11;31.60;93.70
35523;DHT22;61478;50.820;4.330;2023-08-20T13:46:37;31.60;93.90
35523;DHT22;61478;50.820;4.330;2023-08-20T13:49:03;31.30;94.70
35523;DHT22;61478;50.820;4.330;2023-08-20T13:51:30;31.00;95.40
35523;DHT22;61478;50.820;4.330;2023-08-20T13:53:56;30.70;95.60
35523;DHT22;61478;50.820;4.330;2023-08-20T13:56:22;30.80;96.20
35523;DHT22;61478;50.820;4.330;2023-08-20T13:58:48;30.70;97.80
35523;DHT22;61478;50.820;4.330;2023-08-20T14:01:14;30.70;96.80
35523;DHT22;61478;50.820;4.330;2023-08-20T14:03:40;30.40;96.70
35523;DHT22;61478;50.820;4.330;2023-08-20T14:06:06;30.40;97.10
35523;DHT22;61478;50.820;4.330;2023-08-20T14:08:32;30.20;96.60
35523;DHT22;61478;50.820;4.330;2023-08-20T14:10:58;30.10;96.50
35523;DHT22;61478;50.820;4.330;2023-08-20T14:13:24;30.30;97.40
35523;DHT22;61478;50.820;4.330;2023-08-20T14:15:50;30.60;97.60
35523;DHT22;61478;50.820;4.330;2023-08-20T14:18:16;30.60;98.60
35523;DHT22;61478;50.820;4.330;2023-08-20T14:20:42;30.50;99.10
35523;DHT22;61478;50.820;4.330;2023-08-20T14:23:07;30.40;97.80
35523;DHT22;61478;50.820;4.330;2023-08-20T14:25:34;30.00;99.90
35523;DHT22;61478;50.820;4.330;2023-08-20T14:28:00;30.10;98.80
35523;DHT22;61478;50.820;4.330;2023-08-20T14:30:26;30.30;99.90
35523;DHT22;61478;50.820;4.330;2023-08-20T14:32:53;30.30;99.90
35523;DHT22;61478;50.820;4.330;2023-08-20T14:35:19;30.40;99.90
35523;DHT22;61478;50.820;4.330;2023-08-20T14:37:45;30.60;99.80
35523;DHT22;61478;50.820;4.330;2023-08-20T14:40:11;30.50;99.90
35523;DHT22;61478;50.820;4.330;2023-08-20T14:42:37;30.10;99.90
35523;DHT22;61478;50.820;4.330;2023-08-20T14:45:04;30.00;99.90
35523;DHT22;61478;50.820;4.330;2023-08-20T14:47:31;30.20;99.90
35523;DHT22;61478;50.820;4.330;2023-08-20T14:49:57;30.20;99.90
35523;DHT22;61478;50.820;4.330;2023-08-20T14:52:23;30.40;99.80
35523;DHT22;61478;50.820;4.330;2023-08-20T14:54:48;30.60;98.90
35523;DHT22;61478;50.820;4.330;2023-08-20T14:57:17;30.80;99.90
35523;DHT22;61478;50.820;4.330;2023-08-20T14:59:44;30.40;99.90
35523;DHT22;61478;50.820;4.330;2023-08-20T15:02:10;30.30;99.90
35523;DHT22;61478;50.820;4.330;2023-08-20T15:04:36;30.50;99.90
35523;DHT22;61478;50.820;4.330;2023-08-20T15:07:02;30.60;98.30
35523;DHT22;61478;50.820;4.330;2023-08-20T15:09:29;30.70;96.10
35523;DHT22;61478;50.820;4.330;2023-08-20T15:11:55;30.90;96.90
35523;DHT22;61478;50.820;4.330;2023-08-20T15:14:22;30.90;97.40
35523;DHT22;61478;50.820;4.330;2023-08-20T15:16:48;30.80;98.40
35523;DHT22;61478;50.820;4.330;2023-08-20T15:19:14;30.80;98.30
35523;DHT22;61478;50.820;4.330;2023-08-20T15:21:40;30.80;97.20
35523;DHT22;61478;50.820;4.330;2023-08-20T15:24:06;30.60;96.90
35523;DHT22;61478;50.820;4.330;2023-08-20T15:26:32;30.70;96.50
35523;DHT22;61478;50.820;4.330;2023-08-20T15:28:57;30.60;96.10
35523;DHT22;61478;50.820;4.330;2023-08-20T15:31:23;30.80;97.20
35523;DHT22;61478;50.820;4.330;2023-08-20T15:33:49;30.80;97.50
35523;DHT22;61478;50.820;4.330;2023-08-20T15:36:17;30.80;98.10
35523;DHT22;61478;50.820;4.330;2023-08-20T15:38:43;30.80;97.70
35523;DHT22;61478;50.820;4.330;2023-08-20T15:41:09;30.80;97.40
35523;DHT22;61478;50.820;4.330;2023-08-20T15:43:35;30.60;97.10
35523;DHT22;61478;50.820;4.330;2023-08-20T15:46:00;30.60;98.60
35523;DHT22;61478;50.820;4.330;2023-08-20T15:48:27;30.70;98.80
35523;DHT22;61478;50.820;4.330;2023-08-20T15:50:53;30.70;98.40